Time;durP1;ratioP1;P1;durP2;ratioP2;P2;SDS_P1;SDS_P2;PMS_P1;PMS_P2;Temp;Humidity;BMP_temperature;BMP_pressure;BME280_temperature;BME280_humidity;BME280_pressure;Samples;Min_cycle;Max_cycle;Signal;HPM_P1;HPM_P2
2021/12/21 00:01:35;;;;;;;30.88;12.15;;;-4.00;99.90;;;;;;5038320;28;20038;-79
2021/12/21 00:04:00;;;;;;;33.08;13.15;;;-3.90;99.90;;;;;;5037575;28;20469;-79
2021/12/21 00:06:26;;;;;;;34.90;12.88;;;-3.90;99.90;;;;;;5037146;28;20482;-78
2021/12/21 00:09:18;;;;;;;37.92;14.45;;;-3.90;99.90;;;;;;5036903;28;20057;-78
2021/12/21 00:11:43;;;;;;;37.03;14.60;;;-4.00;99.90;;;;;;5039636;28;20080;-78
2021/12/21 00:14:26;;;;;;;31.92;14.45;;;-4.00;99.90;;;;;;5040994;28;20060;-78
2021/12/21 00:19:51;;;;;;;36.50;13.93;;;-4.00;99.90;;;;;;5039519;28;20117;-79
2021/12/21 00:25:02;;;;;;;35.75;14.23;;;-4.10;99.90;;;;;;5041041;28;20072;-78
2021/12/21 00:27:28;;;;;;;;;;;-4.10;99.90;;;;;;5040674;28;20057;-78
2021/12/21 00:29:53;;;;;;;32.70;12.13;;;-4.10;99.90;;;;;;5039056;28;19931;-79
2021/12/21 00:32:19;;;;;;;32.70;12.75;;;-4.10;99.90;;;;;;5036898;28;20064;-78
2021/12/21 00:34:44;;;;;;;41.63;17.48;;;-4.00;99.90;;;;;;5039735;28;20072;-78
2021/12/21 00:37:10;;;;;;;28.80;11.80;;;-4.10;99.90;;;;;;5040370;28;20103;-79
2021/12/21 00:39:36;;;;;;;31.77;12.48;;;-4.10;99.90;;;;;;5039563;28;20074;-79
2021/12/21 00:42:04;;;;;;;34.05;14.32;;;-4.10;99.90;;;;;;5049982;28;20083;-78
2021/12/21 00:44:30;;;;;;;47.90;16.98;;;-4.10;99.90;;;;;;5059714;28;20068;-79
2021/12/21 00:46:56;;;;;;;32.58;13.77;;;-4.10;99.90;;;;;;5060350;28;20082;-78
2021/12/21 00:49:23;;;;;;;27.38;12.85;;;-4.10;99.90;;;;;;5060530;28;20376;-78
2021/12/21 00:51:49;;;;;;;36.67;14.05;;;-4.10;99.90;;;;;;5059568;28;20052;-78
2021/12/21 00:54:16;;;;;;;36.58;12.52;;;-4.20;99.90;;;;;;5060068;28;20037;-79
2021/12/21 00:56:42;;;;;;;29.05;11.60;;;-4.10;99.90;;;;;;5059557;28;20064;-78
2021/12/21 00:59:08;;;;;;;30.85;12.63;;;-4.10;99.90;;;;;;5060170;28;20040;-79
2021/12/21 01:01:40;;;;;;;;;;;-4.00;99.90;;;;;;5060565;28;20049;-78
2021/12/21 01:04:10;;;;;;;32.05;12.52;;;-4.20;99.90;;;;;;5059657;28;19928;-78
2021/12/21 01:06:43;;;;;;;33.97;16.73;;;-4.20;99.90;;;;;;5048820;28;20041;-78
2021/12/21 01:12:06;;;;;;;31.25;13.57;;;-4.30;99.90;;;;;;5030129;28;20053;-78
2021/12/21 01:14:58;;;;;;;32.20;14.13;;;-4.30;99.90;;;;;;5050541;28;20052;-79
2021/12/21 01:17:25;;;;;;;40.17;14.85;;;-4.30;99.90;;;;;;5056646;28;20080;-79
2021/12/21 01:20:03;;;;;;;32.38;14.77;;;-4.30;99.90;;;;;;5056149;28;20049;-78
2021/12/21 01:36:25;;;;;;;36.70;14.88;;;-4.30;99.90;;;;;;5059888;28;20147;-80
2021/12/21 01:42:05;;;;;;;35.40;15.20;;;-4.30;99.90;;;;;;5057403;28;20053;-78
2021/12/21 01:49:53;;;;;;;30.95;15.95;;;-4.40;99.90;;;;;;5058983;28;20103;-78
2021/12/21 01:52:22;;;;;;;29.70;14.73;;;-4.40;99.90;;;;;;5059171;28;20049;-78
2021/12/21 01:54:49;;;;;;;29.33;14.02;;;-4.40;99.90;;;;;;5060262;28;20053;-78
2021/12/21 01:57:15;;;;;;;31.98;14.10;;;-4.40;99.90;;;;;;5059922;28;20117;-78
2021/12/21 01:59:42;;;;;;;32.25;13.20;;;-4.40;99.90;;;;;;5059755;28;20069;-78
2021/12/21 02:02:10;;;;;;;37.97;13.57;;;-4.40;99.90;;;;;;5059773;28;20045;-78
2021/12/21 02:04:37;;;;;;;31.52;13.52;;;-4.40;99.90;;;;;;5060246;28;20107;-78
2021/12/21 02:07:04;;;;;;;31.38;12.90;;;-4.40;99.90;;;;;;5059606;28;20053;-78
2021/12/21 02:09:37;;;;;;;44.00;14.27;;;-4.50;99.90;;;;;;5060522;28;20588;-78
2021/12/21 02:12:05;;;;;;;26.70;12.57;;;-4.50;99.90;;;;;;5062423;28;20570;-78
2021/12/21 02:14:31;;;;;;;23.95;10.25;;;-4.50;99.90;;;;;;5061388;28;20126;-78
2021/12/21 02:18:03;;;;;;;;;;;-4.50;99.90;;;;;;5060459;28;20075;-78
2021/12/21 02:20:18;;;;;;;17.58;7.50;;;-4.50;99.90;;;;;;5059282;28;20315;-78
2021/12/21 02:22:50;;;;;;;19.55;8.15;;;-4.50;99.90;;;;;;5059836;28;20508;-78
2021/12/21 02:27:56;;;;;;;26.17;9.43;;;-4.40;99.90;;;;;;5058324;28;20112;-78
2021/12/21 02:30:22;;;;;;;23.83;9.75;;;-4.40;99.90;;;;;;5060329;28;20056;-78
2021/12/21 02:32:48;;;;;;;;;;;-4.50;99.90;;;;;;5059601;28;20061;-78
2021/12/21 02:35:14;;;;;;;17.27;6.65;;;-4.40;99.90;;;;;;5058673;28;20452;-79
2021/12/21 02:37:39;;;;;;;17.77;7.30;;;-4.60;99.90;;;;;;5058693;28;20072;-78
2021/12/21 02:40:06;;;;;;;15.80;7.90;;;-4.60;99.90;;;;;;5059230;28;20057;-77
2021/12/21 02:42:32;;;;;;;13.20;6.38;;;-4.60;99.90;;;;;;5059279;28;20049;-78
2021/12/21 02:44:58;;;;;;;15.45;7.15;;;-4.60;99.90;;;;;;5059729;28;20055;-79
2021/12/21 02:47:23;;;;;;;11.63;6.38;;;-4.60;99.90;;;;;;5058868;28;20045;-79
2021/12/21 02:49:49;;;;;;;24.42;8.75;;;-4.70;99.90;;;;;;5059512;28;20047;-78
2021/12/21 02:52:14;;;;;;;17.08;7.68;;;-4.70;99.90;;;;;;5059369;28;20053;-78
2021/12/21 02:54:40;;;;;;;21.63;7.55;;;-4.70;99.90;;;;;;5058060;28;20045;-78
2021/12/21 02:57:06;;;;;;;19.48;8.02;;;-4.80;99.90;;;;;;5058904;28;20056;-78
2021/12/21 02:59:32;;;;;;;15.60;8.38;;;-4.70;99.90;;;;;;5057896;28;20057;-78
2021/12/21 03:01:58;;;;;;;21.88;9.13;;;-4.80;99.90;;;;;;5058760;28;20132;-78
2021/12/21 03:04:23;;;;;;;14.93;7.57;;;-4.80;99.90;;;;;;5059421;28;20056;-78
2021/12/21 03:09:39;;;;;;;16.70;8.07;;;-4.90;99.90;;;;;;5057312;28;20522;-78
2021/12/21 03:12:14;;;;;;;17.27;6.70;;;-4.90;99.90;;;;;;5057917;28;20089;-80
2021/12/21 03:14:41;;;;;;;16.45;8.40;;;-4.80;99.90;;;;;;5058497;28;20463;-78
2021/12/21 03:17:08;;;;;;;22.48;11.02;;;-4.80;99.90;;;;;;5058348;28;20080;-78
2021/12/21 03:19:34;;;;;;;25.58;11.07;;;-4.80;99.90;;;;;;5057771;28;20057;-78
2021/12/21 03:21:59;;;;;;;30.08;9.40;;;-4.80;99.90;;;;;;5057639;28;20048;-78
2021/12/21 03:24:25;;;;;;;18.50;9.48;;;-4.90;99.90;;;;;;5058042;28;20048;-78
2021/12/21 03:26:51;;;;;;;15.38;8.48;;;-4.80;99.90;;;;;;5057683;28;20132;-78
2021/12/21 03:29:17;;;;;;;20.15;9.50;;;-4.80;99.90;;;;;;5057889;28;20059;-78
2021/12/21 03:31:42;;;;;;;;;;;-4.80;99.90;;;;;;5057276;28;20061;-78
2021/12/21 03:34:09;;;;;;;14.13;7.97;;;-4.80;99.90;;;;;;5056775;28;19931;-78
2021/12/21 03:36:35;;;;;;;19.02;7.38;;;-4.90;99.90;;;;;;5057289;28;20048;-78
2021/12/21 03:39:04;;;;;;;17.73;9.00;;;-4.90;99.90;;;;;;5057516;28;20049;-78
2021/12/21 03:41:30;;;;;;;19.08;9.73;;;-4.90;99.90;;;;;;5056163;28;20056;-78
2021/12/21 03:43:59;;;;;;;20.25;8.38;;;-4.90;99.90;;;;;;5055101;28;20060;-78
2021/12/21 03:46:25;;;;;;;21.15;9.30;;;-4.90;99.90;;;;;;5059036;28;20091;-78
2021/12/21 03:48:51;;;;;;;19.73;8.93;;;-4.90;99.90;;;;;;5057866;28;20053;-78
2021/12/21 03:51:19;;;;;;;18.27;8.90;;;-4.90;99.90;;;;;;5058699;28;20506;-78
2021/12/21 03:53:47;;;;;;;22.65;9.38;;;-4.90;99.90;;;;;;5058837;28;20053;-78
2021/12/21 03:56:33;;;;;;;22.20;9.20;;;-5.00;99.90;;;;;;5058482;28;20060;-78
2021/12/21 03:58:58;;;;;;;22.92;9.10;;;-5.00;99.90;;;;;;5059175;28;20167;-77
2021/12/21 04:01:24;;;;;;;24.05;8.55;;;-5.00;99.90;;;;;;5059850;28;20543;-77
2021/12/21 04:03:50;;;;;;;22.00;9.07;;;-4.90;99.90;;;;;;5058915;28;20065;-78
2021/12/21 04:06:15;;;;;;;25.70;9.00;;;-4.90;99.90;;;;;;5058486;28;20075;-78
2021/12/21 04:08:41;;;;;;;18.55;8.85;;;-4.90;99.90;;;;;;5059356;28;20043;-78
2021/12/21 04:11:07;;;;;;;22.60;8.77;;;-4.90;99.90;;;;;;5060285;28;20817;-78
2021/12/21 04:13:32;;;;;;;15.02;7.05;;;-4.90;99.90;;;;;;5059018;28;20080;-78
2021/12/21 04:16:01;;;;;;;16.92;8.05;;;-4.50;99.90;;;;;;5057885;28;20603;-78
2021/12/21 04:18:26;;;;;;;17.60;7.40;;;-4.90;99.90;;;;;;5056545;28;20115;-78
2021/12/21 04:20:52;;;;;;;17.13;7.70;;;-5.00;99.90;;;;;;5056159;28;20045;-78
2021/12/21 04:23:18;;;;;;;16.48;6.50;;;-5.00;99.90;;;;;;5056291;28;20053;-78
2021/12/21 04:25:44;;;;;;;14.15;8.27;;;-4.80;99.90;;;;;;5057421;28;20056;-78
2021/12/21 04:28:10;;;;;;;12.40;6.47;;;-4.90;99.90;;;;;;5055911;28;20124;-79
2021/12/21 04:30:35;;;;;;;16.80;7.32;;;-5.00;99.90;;;;;;5055148;28;20068;-78
2021/12/21 04:33:01;;;;;;;16.20;8.55;;;-5.00;99.90;;;;;;5055813;28;20563;-77
2021/12/21 04:35:27;;;;;;;13.85;8.65;;;-4.90;99.90;;;;;;5055991;28;20097;-78
2021/12/21 04:37:58;;;;;;;15.05;7.25;;;-4.90;99.90;;;;;;5055654;28;20053;-78
2021/12/21 04:40:37;;;;;;;15.65;7.55;;;-4.90;99.90;;;;;;5055352;28;20055;-78
2021/12/21 04:43:03;;;;;;;16.75;7.78;;;-5.00;99.90;;;;;;5055491;28;20048;-78
2021/12/21 04:45:29;;;;;;;;;;;-5.00;99.90;;;;;;5055726;28;20052;-78
2021/12/21 04:47:54;;;;;;;20.85;8.35;;;-5.00;99.90;;;;;;5054315;28;20022;-78
2021/12/21 04:50:20;;;;;;;15.55;6.82;;;-5.10;99.90;;;;;;5054227;28;20071;-78
2021/12/21 04:52:46;;;;;;;16.67;8.10;;;-5.10;99.90;;;;;;5053250;28;20053;-78
2021/12/21 04:55:11;;;;;;;19.70;8.52;;;-5.10;99.90;;;;;;5053123;28;20045;-78
2021/12/21 04:57:37;;;;;;;18.95;8.88;;;-5.10;99.90;;;;;;5054536;28;20053;-78
2021/12/21 05:00:04;;;;;;;17.30;8.38;;;-5.10;99.90;;;;;;5053443;28;20466;-78
2021/12/21 05:02:30;;;;;;;14.60;7.95;;;-5.00;99.90;;;;;;5053325;28;20061;-78
2021/12/21 05:04:56;;;;;;;22.17;9.05;;;-5.10;99.90;;;;;;5052708;28;20131;-78
2021/12/21 05:07:24;;;;;;;18.48;8.10;;;-5.00;99.90;;;;;;5053312;28;20053;-78
2021/12/21 05:09:56;;;;;;;29.17;10.27;;;-5.00;99.90;;;;;;5052687;28;20049;-78
2021/12/21 05:12:22;;;;;;;30.85;10.60;;;-5.00;99.90;;;;;;5052226;28;20233;-78
2021/12/21 05:14:48;;;;;;;21.98;8.75;;;-5.00;99.90;;;;;;5051238;28;20064;-78
2021/12/21 05:17:14;;;;;;;20.88;7.80;;;-5.00;99.90;;;;;;5051359;28;20163;-78
2021/12/21 05:19:40;;;;;;;17.65;7.25;;;-5.00;99.90;;;;;;5051551;28;20553;-78
2021/12/21 05:22:05;;;;;;;17.55;6.70;;;-5.00;99.90;;;;;;5050747;28;20226;-79
2021/12/21 05:24:31;;;;;;;16.55;7.28;;;-5.00;99.90;;;;;;5050735;28;20100;-78
2021/12/21 05:26:57;;;;;;;20.92;8.95;;;-5.10;99.90;;;;;;5050430;28;20048;-78
2021/12/21 05:29:24;;;;;;;12.00;6.57;;;-5.10;99.90;;;;;;5048364;28;20063;-78
2021/12/21 05:31:50;;;;;;;13.57;6.82;;;-5.10;99.90;;;;;;5049080;28;20040;-78
2021/12/21 05:34:16;;;;;;;;;;;-5.20;99.90;;;;;;5051632;28;20107;-77
2021/12/21 05:36:41;;;;;;;15.15;6.32;;;-5.20;99.90;;;;;;5050988;28;20475;-78
2021/12/21 05:39:16;;;;;;;15.13;6.95;;;-5.20;99.90;;;;;;5050586;28;20068;-78
2021/12/21 05:44:17;;;;;;;15.43;6.90;;;-5.20;99.90;;;;;;5049347;28;20053;-77
2021/12/21 05:46:43;;;;;;;14.10;6.28;;;-5.20;99.90;;;;;;5048370;28;20056;-77
2021/12/21 05:49:08;;;;;;;16.85;7.88;;;-5.20;99.90;;;;;;5047816;28;20056;-78
2021/12/21 05:51:34;;;;;;;16.33;6.47;;;-5.20;99.90;;;;;;5047629;28;20096;-78
2021/12/21 05:53:59;;;;;;;19.15;6.90;;;-5.20;99.90;;;;;;5047070;28;20045;-78
2021/12/21 05:56:25;;;;;;;14.38;7.20;;;-5.20;99.90;;;;;;5046674;28;20419;-78
2021/12/21 05:58:54;;;;;;;19.88;6.63;;;-5.20;99.90;;;;;;5046749;28;20527;-77
2021/12/21 06:01:19;;;;;;;18.88;7.60;;;-5.20;99.90;;;;;;5045652;28;20048;-77
2021/12/21 06:03:45;;;;;;;14.07;6.63;;;-5.20;99.90;;;;;;5046378;28;20114;-78
2021/12/21 06:06:14;;;;;;;17.67;6.32;;;-5.30;99.90;;;;;;5046695;28;20067;-77
2021/12/21 06:08:41;;;;;;;17.65;6.65;;;-5.10;99.90;;;;;;5046575;28;20070;-77
2021/12/21 06:11:08;;;;;;;12.48;6.05;;;-5.20;99.90;;;;;;5046938;28;20082;-78
2021/12/21 06:16:28;;;;;;;16.90;6.68;;;-5.30;99.90;;;;;;5047554;28;20397;-78
2021/12/21 06:27:10;;;;;;;11.85;5.65;;;-5.30;99.90;;;;;;5045488;28;20055;-78
2021/12/21 06:29:36;;;;;;;12.38;5.45;;;-5.30;99.90;;;;;;5044663;28;20453;-78
2021/12/21 06:32:03;;;;;;;10.00;5.90;;;-5.30;99.90;;;;;;5044850;28;20128;-78
2021/12/21 06:34:29;;;;;;;15.65;7.43;;;-5.30;99.90;;;;;;5044701;28;20376;-78
2021/12/21 06:36:54;;;;;;;18.30;8.23;;;-5.40;99.90;;;;;;5044930;28;20048;-78
2021/12/21 06:39:20;;;;;;;14.20;6.47;;;-5.50;99.90;;;;;;5045062;28;20072;-78
2021/12/21 06:41:46;;;;;;;13.70;5.75;;;-5.40;99.90;;;;;;5044360;28;20491;-78
2021/12/21 06:44:14;;;;;;;11.77;5.30;;;-5.40;99.90;;;;;;5044300;28;20131;-78
2021/12/21 06:52:12;;;;;;;12.65;5.57;;;-5.40;99.90;;;;;;5044436;28;20049;-78
2021/12/21 06:54:40;;;;;;;14.23;6.00;;;-5.50;99.90;;;;;;5042764;28;20055;-78
2021/12/21 06:57:06;;;;;;;10.32;5.55;;;-5.40;99.90;;;;;;5044745;28;20124;-78
2021/12/21 06:59:32;;;;;;;12.73;4.63;;;-5.40;99.90;;;;;;5044458;28;20512;-78
2021/12/21 07:01:58;;;;;;;10.20;5.45;;;-5.50;99.90;;;;;;5043919;28;20044;-78
2021/12/21 07:04:24;;;;;;;9.95;5.35;;;-5.50;99.90;;;;;;5044652;28;20060;-78
2021/12/21 07:06:53;;;;;;;;;;;-5.50;99.90;;;;;;5035645;28;20053;-78
2021/12/21 07:09:30;;;;;;;15.18;5.78;;;-5.50;99.90;;;;;;5028978;28;19931;-77
2021/12/21 07:20:11;;;;;;;10.88;5.78;;;-5.60;99.90;;;;;;5028260;28;20100;-78
2021/12/21 07:22:37;;;;;;;14.95;6.25;;;-5.60;99.90;;;;;;5027142;28;20940;-78
2021/12/21 07:25:03;;;;;;;10.95;5.45;;;-5.60;99.90;;;;;;5027454;28;20069;-78
2021/12/21 07:27:28;;;;;;;12.35;6.05;;;-5.50;99.90;;;;;;5027135;28;20124;-78
2021/12/21 07:29:54;;;;;;;29.42;7.25;;;-5.50;99.90;;;;;;5026995;28;20136;-78
2021/12/21 07:32:19;;;;;;;20.10;8.50;;;-5.50;99.90;;;;;;5026122;28;20057;-78
2021/12/21 07:34:45;;;;;;;16.52;7.10;;;-5.50;99.90;;;;;;5026224;28;20049;-78
2021/12/21 07:37:11;;;;;;;15.70;7.82;;;-5.50;99.90;;;;;;5027406;28;20060;-78
2021/12/21 07:39:37;;;;;;;18.90;9.43;;;-5.50;99.90;;;;;;5027311;28;20053;-77
2021/12/21 07:42:04;;;;;;;;;;;-5.50;99.90;;;;;;5027962;28;20056;-78
2021/12/21 07:44:29;;;;;;;19.17;8.48;;;-5.50;99.90;;;;;;5026638;28;19925;-78
2021/12/21 07:46:55;;;;;;;20.33;9.32;;;-5.40;99.90;;;;;;5027008;28;20049;-77
2021/12/21 07:49:21;;;;;;;21.60;10.07;;;-5.50;99.90;;;;;;5026838;28;20045;-78
2021/12/21 07:51:48;;;;;;;16.40;8.43;;;-5.40;99.90;;;;;;5026621;28;20053;-78
2021/12/21 07:54:21;;;;;;;18.27;9.00;;;-5.40;99.90;;;;;;5027311;28;20393;-78
2021/12/21 07:56:47;;;;;;;30.85;13.70;;;-5.40;99.90;;;;;;5025292;28;20119;-78
2021/12/21 07:59:12;;;;;;;40.15;20.38;;;-5.40;99.90;;;;;;5027749;28;20061;-78
2021/12/21 08:01:39;;;;;;;38.53;16.75;;;-5.30;99.90;;;;;;5028367;28;20096;-77
2021/12/21 08:04:07;;;;;;;26.20;12.57;;;-5.30;99.90;;;;;;5028712;28;20101;-77
2021/12/21 08:06:34;;;;;;;23.23;10.45;;;-5.30;99.90;;;;;;5028699;28;20048;-77
2021/12/21 08:09:01;;;;;;;16.00;8.05;;;-5.30;99.90;;;;;;5028941;28;20053;-77
2021/12/21 08:13:53;;;;;;;14.75;7.50;;;-5.30;99.90;;;;;;5028971;28;20159;-77
2021/12/21 08:16:19;;;;;;;15.38;6.18;;;-5.20;99.90;;;;;;5028510;28;20053;-77
2021/12/21 08:18:45;;;;;;;15.15;6.80;;;-5.20;99.90;;;;;;5028546;28;20055;-77
2021/12/21 08:21:12;;;;;;;17.25;6.68;;;-5.20;99.90;;;;;;5038049;28;20052;-78
2021/12/21 08:23:38;;;;;;;11.23;5.70;;;-5.20;99.90;;;;;;5043306;28;20510;-78
2021/12/21 08:26:05;;;;;;;15.40;6.22;;;-5.20;99.90;;;;;;5047828;28;20049;-78
2021/12/21 08:28:31;;;;;;;13.25;5.88;;;-5.20;99.90;;;;;;5031606;28;20470;-78
2021/12/21 08:30:58;;;;;;;17.10;7.90;;;-4.80;99.90;;;;;;5025216;28;20160;-78
2021/12/21 08:33:24;;;;;;;18.55;6.97;;;-5.20;99.90;;;;;;5026714;28;20049;-78
2021/12/21 08:35:50;;;;;;;16.75;8.07;;;-5.20;99.90;;;;;;5026246;28;20068;-78
2021/12/21 08:38:18;;;;;;;14.95;6.68;;;-5.20;99.90;;;;;;5028289;28;20132;-78
2021/12/21 08:40:48;;;;;;;12.07;6.70;;;-5.10;99.90;;;;;;5044811;28;20067;-78
2021/12/21 08:43:17;;;;;;;18.02;7.40;;;-5.10;99.90;;;;;;5045742;28;20132;-77
2021/12/21 08:45:45;;;;;;;19.63;8.45;;;-5.00;99.90;;;;;;5044098;28;20147;-78
2021/12/21 08:48:13;;;;;;;22.00;9.30;;;-4.90;99.90;;;;;;5045690;28;20084;-78
2021/12/21 08:50:39;;;;;;;26.80;10.10;;;-4.90;99.90;;;;;;5046203;28;20072;-78
2021/12/21 08:53:05;;;;;;;20.92;9.75;;;-4.80;99.90;;;;;;5046114;28;20096;-78
2021/12/21 08:55:31;;;;;;;24.88;10.32;;;-4.70;99.90;;;;;;5045821;28;20102;-78
2021/12/21 08:57:57;;;;;;;19.33;9.95;;;-4.60;99.90;;;;;;5044487;28;20061;-77
2021/12/21 09:00:23;;;;;;;;;;;-4.50;99.90;;;;;;5045883;28;20048;-77
2021/12/21 09:02:50;;;;;;;37.08;11.48;;;-4.50;99.90;;;;;;5045408;28;19955;-78
2021/12/21 09:05:20;;;;;;;27.08;10.93;;;-4.40;99.90;;;;;;5043656;28;20085;-78
2021/12/21 09:07:48;;;;;;;28.42;14.32;;;-4.30;99.90;;;;;;5045475;28;20052;-78
2021/12/21 09:10:17;;;;;;;28.25;14.70;;;-4.30;99.90;;;;;;5045505;28;20400;-78
2021/12/21 09:12:43;;;;;;;30.85;13.55;;;-4.20;99.90;;;;;;5045103;28;20045;-78
2021/12/21 09:15:10;;;;;;;34.08;16.42;;;-4.10;99.90;;;;;;5045687;28;20049;-78
2021/12/21 09:17:36;;;;;;;35.30;15.80;;;-4.00;99.90;;;;;;5045820;28;20049;-78
2021/12/21 09:20:03;;;;;;;32.70;14.00;;;-3.90;99.90;;;;;;5045360;28;20045;-78
2021/12/21 09:22:29;;;;;;;36.85;15.48;;;-3.80;99.90;;;;;;5045285;28;20045;-78
2021/12/21 09:24:57;;;;;;;39.63;16.70;;;-3.60;99.90;;;;;;5045173;28;20122;-78
2021/12/21 09:27:23;;;;;;;33.55;16.60;;;-3.50;99.90;;;;;;5044553;28;20693;-78
2021/12/21 09:29:49;;;;;;;38.17;17.65;;;-3.40;99.90;;;;;;5044531;28;20182;-78
2021/12/21 09:32:18;;;;;;;;;;;-3.30;99.90;;;;;;5045075;28;20049;-78
2021/12/21 09:34:44;;;;;;;42.83;19.52;;;-3.10;99.90;;;;;;5037394;28;19971;-78
2021/12/21 09:37:15;;;;;;;37.95;17.00;;;-3.00;99.90;;;;;;5039405;28;20075;-78
2021/12/21 09:39:47;;;;;;;36.15;18.85;;;-3.00;99.90;;;;;;5044377;28;20248;-78
2021/12/21 09:42:16;;;;;;;38.95;17.65;;;-2.90;99.90;;;;;;5043215;28;20064;-78
2021/12/21 09:44:42;;;;;;;36.17;17.42;;;-2.80;99.90;;;;;;5044377;28;20125;-78
2021/12/21 09:47:09;;;;;;;39.15;16.92;;;-2.70;99.90;;;;;;5041336;28;20483;-78
2021/12/21 09:49:36;;;;;;;35.00;17.42;;;-2.70;99.90;;;;;;5043153;28;20053;-77
2021/12/21 09:52:03;;;;;;;34.78;17.02;;;-2.60;99.90;;;;;;5046260;28;20053;-77
2021/12/21 09:54:30;;;;;;;38.38;16.52;;;-2.50;99.90;;;;;;5044426;28;20221;-78
2021/12/21 09:56:56;;;;;;;51.67;18.67;;;-2.40;99.90;;;;;;5047959;28;20059;-78
2021/12/21 09:59:21;;;;;;;41.70;17.42;;;-2.30;99.90;;;;;;5044434;28;20053;-78
2021/12/21 10:01:47;;;;;;;40.20;18.75;;;-2.20;99.90;;;;;;5041052;28;20060;-79
2021/12/21 10:04:13;;;;;;;39.67;17.05;;;-2.20;99.90;;;;;;5039251;28;20144;-78
2021/12/21 10:06:48;;;;;;;46.83;19.58;;;-2.10;99.90;;;;;;5044371;28;20053;-78
2021/12/21 10:09:16;;;;;;;43.10;18.67;;;-2.00;99.90;;;;;;5024627;28;20057;-78
2021/12/21 10:11:43;;;;;;;45.63;19.48;;;-2.00;99.90;;;;;;5033444;28;20037;-78
2021/12/21 10:14:10;;;;;;;40.33;18.92;;;-1.90;99.90;;;;;;5044585;28;20057;-78
2021/12/21 10:16:36;;;;;;;42.03;20.27;;;-1.90;99.90;;;;;;5043599;28;20450;-78
2021/12/21 10:19:05;;;;;;;43.45;20.88;;;-1.80;99.90;;;;;;5044748;28;20110;-78
2021/12/21 10:21:30;;;;;;;48.88;20.05;;;-1.70;99.90;;;;;;5041610;28;20053;-78
2021/12/21 10:23:57;;;;;;;55.13;21.90;;;-1.60;99.90;;;;;;5042648;28;20037;-78
2021/12/21 10:26:29;;;;;;;51.25;20.77;;;-1.40;99.90;;;;;;5037690;28;20053;-78
2021/12/21 10:29:05;;;;;;;53.38;22.23;;;-1.40;99.90;;;;;;5037889;28;20072;-78
2021/12/21 10:31:39;;;;;;;53.35;23.00;;;-1.30;99.90;;;;;;5043835;28;20106;-77
2021/12/21 10:34:11;;;;;;;50.33;20.80;;;-1.20;99.90;;;;;;5038360;28;20103;-78
2021/12/21 10:36:50;;;;;;;48.47;20.67;;;-1.10;99.90;;;;;;5035960;28;20048;-77
2021/12/21 10:39:27;;;;;;;49.22;22.40;;;-1.00;99.90;;;;;;5042298;28;20052;-78
2021/12/21 10:41:59;;;;;;;47.90;21.92;;;-0.90;99.90;;;;;;5044175;28;20672;-77
2021/12/21 10:44:24;;;;;;;53.30;23.02;;;-0.80;99.90;;;;;;5026853;28;20132;-77
2021/12/21 10:46:53;;;;;;;56.17;23.30;;;-0.70;99.90;;;;;;5044341;28;20136;-77
2021/12/21 10:49:24;;;;;;;55.25;23.95;;;-0.70;99.90;;;;;;5043578;28;20935;-79
2021/12/21 10:52:01;;;;;;;49.30;19.75;;;-0.70;99.90;;;;;;5043908;28;20049;-77
2021/12/21 10:54:34;;;;;;;44.50;19.85;;;-0.60;99.90;;;;;;5042301;28;20120;-78
2021/12/21 10:57:10;;;;;;;53.88;22.42;;;-0.50;99.90;;;;;;5044852;28;20040;-77
2021/12/21 10:59:39;;;;;;;56.63;22.48;;;-0.50;99.90;;;;;;5043969;28;20049;-78
2021/12/21 11:02:28;;;;;;;48.38;22.80;;;-0.40;99.90;;;;;;5042924;28;20076;-77
2021/12/21 11:05:02;;;;;;;49.08;22.83;;;-0.30;99.90;;;;;;5041440;28;20065;-77
2021/12/21 11:07:44;;;;;;;57.38;23.33;;;-0.30;99.90;;;;;;5044902;28;20041;-77
2021/12/21 11:10:26;;;;;;;43.53;22.00;;;-0.30;99.90;;;;;;5045341;28;20079;-77
2021/12/21 11:12:59;;;;;;;53.10;24.20;;;-0.20;99.90;;;;;;5043032;28;20138;-77
2021/12/21 11:15:30;;;;;;;56.30;23.60;;;-0.20;99.90;;;;;;5042588;28;20045;-78
2021/12/21 11:17:58;;;;;;;48.05;23.05;;;-0.20;99.90;;;;;;5032953;28;20502;-77
2021/12/21 11:20:25;;;;;;;47.42;23.38;;;-0.10;99.90;;;;;;5043506;28;20082;-78
2021/12/21 11:22:52;;;;;;;44.00;21.10;;;-0.10;99.90;;;;;;5043819;28;20055;-78
2021/12/21 11:25:19;;;;;;;43.20;21.30;;;-0.10;99.90;;;;;;5043977;28;20049;-78
2021/12/21 11:27:45;;;;;;;50.70;21.52;;;0.00;99.90;;;;;;5043713;28;20064;-78
2021/12/21 11:30:16;;;;;;;49.40;21.40;;;0.00;99.90;;;;;;5042197;28;20041;-78
2021/12/21 11:32:45;;;;;;;47.90;21.65;;;0.10;99.90;;;;;;5044114;28;20153;-78
2021/12/21 11:37:45;;;;;;;51.65;23.00;;;0.10;99.90;;;;;;5043597;28;20065;-77
2021/12/21 11:40:19;;;;;;;39.67;20.30;;;0.10;99.90;;;;;;5025878;28;20045;-78
2021/12/21 11:42:51;;;;;;;47.17;20.85;;;0.20;99.90;;;;;;5044142;28;20045;-78
2021/12/21 11:45:37;;;;;;;42.33;18.42;;;0.20;99.90;;;;;;5043863;28;20481;-78
2021/12/21 11:48:17;;;;;;;36.50;18.38;;;0.20;99.90;;;;;;5034076;28;20116;-78
2021/12/21 11:50:46;;;;;;;44.42;19.13;;;0.30;99.90;;;;;;5040628;28;20048;-79
2021/12/21 11:53:15;;;;;;;36.92;19.35;;;0.30;99.90;;;;;;5023735;28;20061;-77
2021/12/21 11:55:44;;;;;;;37.60;16.70;;;0.30;99.90;;;;;;5023880;28;20046;-78
2021/12/21 11:58:18;;;;;;;37.55;19.10;;;0.40;99.90;;;;;;5030775;28;20047;-78
2021/12/21 12:00:54;;;;;;;34.92;16.10;;;0.40;99.90;;;;;;5033294;28;20719;-78
2021/12/21 12:03:23;;;;;;;40.53;20.33;;;0.40;99.90;;;;;;5042198;28;20068;-77
2021/12/21 12:06:11;;;;;;;39.17;18.90;;;0.40;99.90;;;;;;5025292;28;20107;-79
2021/12/21 12:08:44;;;;;;;35.38;15.02;;;0.50;99.90;;;;;;5025368;28;20049;-79
2021/12/21 12:11:25;;;;;;;41.63;17.85;;;0.50;99.90;;;;;;5027299;28;20045;-78
2021/12/21 12:14:04;;;;;;;36.75;18.00;;;0.60;99.90;;;;;;5026894;28;20049;-78
2021/12/21 12:16:49;;;;;;;35.70;17.92;;;0.60;99.90;;;;;;5026588;28;20091;-80
2021/12/21 12:19:17;;;;;;;26.75;15.27;;;0.70;99.90;;;;;;5027237;28;20107;-79
2021/12/21 12:21:56;;;;;;;26.17;13.60;;;0.80;99.90;;;;;;5026366;28;20049;-79
2021/12/21 12:24:25;;;;;;;31.00;13.55;;;1.10;99.90;;;;;;5045045;28;20083;-79
2021/12/21 12:27:09;;;;;;;27.95;14.60;;;1.10;99.90;;;;;;5042155;28;20131;-78
2021/12/21 12:29:50;;;;;;;24.15;11.82;;;1.20;99.90;;;;;;5048491;28;20040;-79
2021/12/21 12:32:18;;;;;;;21.48;11.20;;;1.30;99.90;;;;;;5048511;28;20091;-79
2021/12/21 12:34:45;;;;;;;25.08;10.73;;;1.50;99.90;;;;;;5046866;28;20057;-79
2021/12/21 12:37:20;;;;;;;18.35;10.63;;;1.60;99.90;;;;;;5047268;28;20091;-79
2021/12/21 12:39:53;;;;;;;17.40;8.07;;;1.70;99.90;;;;;;5047473;28;20064;-79
2021/12/21 12:42:21;;;;;;;14.60;8.65;;;1.90;99.90;;;;;;5046442;28;20045;-79
2021/12/21 12:44:56;;;;;;;17.63;9.93;;;2.10;99.90;;;;;;5034187;28;20049;-80
2021/12/21 12:47:25;;;;;;;15.52;8.23;;;2.60;99.90;;;;;;5041304;28;20075;-80
2021/12/21 12:49:54;;;;;;;22.60;9.23;;;2.40;99.90;;;;;;5046618;28;20060;-80
2021/12/21 12:52:27;;;;;;;15.40;7.00;;;2.50;99.90;;;;;;5046342;28;20041;-80
2021/12/21 12:54:57;;;;;;;11.60;6.18;;;2.60;99.90;;;;;;5046019;28;20059;-80
2021/12/21 12:57:33;;;;;;;15.90;6.57;;;2.80;99.90;;;;;;5032100;28;20051;-80
2021/12/21 13:00:11;;;;;;;15.90;7.13;;;2.90;99.90;;;;;;5037193;28;20476;-79
2021/12/21 13:02:37;;;;;;;11.07;6.55;;;2.90;99.90;;;;;;5037634;28;20061;-80
2021/12/21 13:05:08;;;;;;;14.05;6.40;;;2.90;99.90;;;;;;5033882;28;20048;-80
2021/12/21 13:07:34;;;;;;;8.07;5.50;;;3.00;99.90;;;;;;5034449;28;20048;-80
2021/12/21 13:10:01;;;;;;;;;;;3.00;99.90;;;;;;5032447;28;20052;-80
2021/12/21 13:12:26;;;;;;;14.57;6.70;;;3.00;99.90;;;;;;5028276;28;19924;-80
2021/12/21 13:14:53;;;;;;;16.73;7.15;;;3.10;99.90;;;;;;5025078;28;20097;-80
2021/12/21 13:17:19;;;;;;;16.58;6.72;;;3.30;99.90;;;;;;5026188;28;20060;-80
2021/12/21 13:19:44;;;;;;;13.50;6.10;;;3.40;99.90;;;;;;5025685;28;20058;-80
2021/12/21 13:22:10;;;;;;;16.75;5.85;;;3.40;99.90;;;;;;5024188;28;20056;-80
2021/12/21 13:24:42;;;;;;;12.23;5.70;;;3.40;99.90;;;;;;5025478;28;20046;-80
2021/12/21 13:27:12;;;;;;;13.05;5.75;;;3.50;99.90;;;;;;5025073;28;20049;-80
2021/12/21 13:29:38;;;;;;;16.17;6.63;;;3.70;99.90;;;;;;5026010;28;20140;-80
2021/12/21 13:32:09;;;;;;;13.77;5.45;;;3.80;99.90;;;;;;5025975;28;20121;-79
2021/12/21 13:34:36;;;;;;;11.77;5.20;;;3.90;99.90;;;;;;5025786;28;20128;-80
2021/12/21 13:37:07;;;;;;;10.95;5.35;;;3.90;99.90;;;;;;5025574;28;20053;-80
2021/12/21 13:39:43;;;;;;;14.23;6.72;;;3.90;99.90;;;;;;5025561;28;20444;-80
2021/12/21 13:42:15;;;;;;;11.07;5.18;;;4.00;99.90;;;;;;5024499;28;20060;-80
2021/12/21 13:44:48;;;;;;;10.07;5.50;;;4.00;99.90;;;;;;5025620;28;20052;-80
2021/12/21 13:47:37;;;;;;;8.43;5.15;;;4.20;99.90;;;;;;5025064;28;20045;-80
2021/12/21 13:50:24;;;;;;;16.38;5.85;;;4.20;99.90;;;;;;5025450;28;20085;-80
2021/12/21 13:53:00;;;;;;;10.65;5.03;;;3.90;99.90;;;;;;5025458;28;20045;-80
2021/12/21 13:55:49;;;;;;;12.93;6.15;;;3.40;99.90;;;;;;5025625;28;20447;-80